This is the latest recevied weather packets stored in our database for station/object K4OAM-13. If no packets are shown the sender has not sent any weather packets the latest 10 day(s).
| Time | Temp. | Humidity | Pressure | Rain* | Wind** | Luminosity | Snow |
|---|---|---|---|---|---|---|---|
| 1777552994 | 5.56° C | 67% | 1009.5 hPa | - | - | - | - |
| 1777552678 | 5.56° C | 68% | 1009.5 hPa | - | - | - | - |
| 1777551778 | 5° C | 70% | 1009.5 hPa | - | - | - | - |
| 1777551478 | 5° C | 70% | 1009.5 hPa | - | - | - | - |
| 1777551178 | 5° C | 70% | 1009.6 hPa | - | - | - | - |
| 1777548478 | 5° C | 68% | 1009.6 hPa | - | - | - | - |
| 1777546994 | 5° C | 69% | 1009.6 hPa | - | - | - | - |
| 1777545778 | 5° C | 69% | 1009.7 hPa | - | - | - | - |
| 1777543694 | 5° C | 68% | 1010.1 hPa | - | - | - | - |
| 1777543078 | 5° C | 68% | 1010 hPa | - | - | - | - |
| 1777541878 | 5° C | 70% | 1010.1 hPa | - | - | - | - |
| 1777541278 | 5° C | 70% | 1010.2 hPa | - | - | - | - |
| 1777538878 | 5° C | 71% | 1010 hPa | - | - | - | - |
| 1777538578 | 5° C | 71% | 1010.1 hPa | - | - | - | - |
| 1777534378 | 3.33° C | 74% | 1011.3 hPa | - | - | - | - |
| 1777529578 | 3.33° C | 76% | 1012 hPa | - | - | - | - |
| 1777526878 | 4.44° C | 69% | 1012 hPa | - | - | - | - |
| 1777526578 | 5° C | 68% | 1011.9 hPa | - | - | - | - |
| 1777526278 | 5.56° C | 69% | 1011.6 hPa | - | - | - | - |
| 1777525678 | 5.56° C | 70% | 1011.7 hPa | - | - | - | - |
| 1777525078 | 5° C | 70% | 1011.9 hPa | - | - | - | - |
| 1777522678 | 5.56° C | 70% | 1012.2 hPa | - | - | - | - |
| 1777521777 | 5° C | 71% | 1012.3 hPa | - | - | - | - |
| 1777521178 | 4.44° C | 73% | 1012.8 hPa | - | - | - | - |
| 1777520593 | 3.33° C | 72% | 1013.4 hPa | - | - | - | - |
* Rain since midnight (hover to see other rain measurements)
** Current wind speed in m/s (hover to see current wind gust speed)